sensor_id;sensor_type;location;lat;lon;timestamp;temperature;humidity
10149;DHT22;5115;50.920;6.376;2024-01-11T00:01:23;-2.70;99.90
10149;DHT22;5115;50.920;6.376;2024-01-11T00:03:48;-2.60;99.90
10149;DHT22;5115;50.920;6.376;2024-01-11T00:06:14;-2.70;99.90
10149;DHT22;5115;50.920;6.376;2024-01-11T00:08:39;-2.70;99.90
10149;DHT22;5115;50.920;6.376;2024-01-11T00:11:05;-2.70;99.90
10149;DHT22;5115;50.920;6.376;2024-01-11T00:13:30;-2.80;99.90
10149;DHT22;5115;50.920;6.376;2024-01-11T00:15:56;-2.80;99.90
10149;DHT22;5115;50.920;6.376;2024-01-11T00:18:21;-2.90;99.90
10149;DHT22;5115;50.920;6.376;2024-01-11T00:20:47;-3.10;99.90
10149;DHT22;5115;50.920;6.376;2024-01-11T00:23:12;-3.10;99.90
10149;DHT22;5115;50.920;6.376;2024-01-11T00:25:38;-3.20;99.90
10149;DHT22;5115;50.920;6.376;2024-01-11T00:28:04;-3.30;99.90
10149;DHT22;5115;50.920;6.376;2024-01-11T00:30:29;-3.40;99.90
10149;DHT22;5115;50.920;6.376;2024-01-11T00:32:55;-3.30;99.90
10149;DHT22;5115;50.920;6.376;2024-01-11T00:35:20;-3.30;99.90
10149;DHT22;5115;50.920;6.376;2024-01-11T00:37:46;-3.20;99.90
10149;DHT22;5115;50.920;6.376;2024-01-11T00:40:11;-3.30;99.90
10149;DHT22;5115;50.920;6.376;2024-01-11T00:42:37;-3.30;99.90
10149;DHT22;5115;50.920;6.376;2024-01-11T00:45:03;-3.40;99.90
10149;DHT22;5115;50.920;6.376;2024-01-11T00:47:29;-3.30;99.90
10149;DHT22;5115;50.920;6.376;2024-01-11T00:49:54;-3.20;99.90
10149;DHT22;5115;50.920;6.376;2024-01-11T00:52:20;-3.20;99.90
10149;DHT22;5115;50.920;6.376;2024-01-11T00:54:45;-3.10;99.90
10149;DHT22;5115;50.920;6.376;2024-01-11T00:57:11;-3.10;99.90
10149;DHT22;5115;50.920;6.376;2024-01-11T00:59:36;-3.10;99.90
10149;DHT22;5115;50.920;6.376;2024-01-11T01:02:02;-3.10;99.90
10149;DHT22;5115;50.920;6.376;2024-01-11T01:04:28;-3.20;99.90
10149;DHT22;5115;50.920;6.376;2024-01-11T01:06:53;-3.30;99.90
10149;DHT22;5115;50.920;6.376;2024-01-11T01:09:19;-2.40;99.90
10149;DHT22;5115;50.920;6.376;2024-01-11T01:11:44;-3.30;99.90
10149;DHT22;5115;50.920;6.376;2024-01-11T01:14:10;-3.40;99.90
10149;DHT22;5115;50.920;6.376;2024-01-11T01:16:35;-3.40;99.90
10149;DHT22;5115;50.920;6.376;2024-01-11T01:19:01;-3.40;99.90
10149;DHT22;5115;50.920;6.376;2024-01-11T01:21:26;-3.30;99.90
10149;DHT22;5115;50.920;6.376;2024-01-11T01:23:53;-3.30;99.90
10149;DHT22;5115;50.920;6.376;2024-01-11T01:26:18;-3.30;99.90
10149;DHT22;5115;50.920;6.376;2024-01-11T01:28:45;-3.20;99.90
10149;DHT22;5115;50.920;6.376;2024-01-11T01:31:12;-2.90;99.90
10149;DHT22;5115;50.920;6.376;2024-01-11T01:33:37;-3.20;99.90
10149;DHT22;5115;50.920;6.376;2024-01-11T01:36:03;-3.30;99.90
10149;DHT22;5115;50.920;6.376;2024-01-11T01:38:29;-3.40;99.90
10149;DHT22;5115;50.920;6.376;2024-01-11T01:40:55;-3.50;99.90
10149;DHT22;5115;50.920;6.376;2024-01-11T01:43:21;-3.50;99.90
10149;DHT22;5115;50.920;6.376;2024-01-11T01:45:47;-3.50;99.90
10149;DHT22;5115;50.920;6.376;2024-01-11T01:48:12;-3.50;99.90
10149;DHT22;5115;50.920;6.376;2024-01-11T01:50:38;-3.40;99.90
10149;DHT22;5115;50.920;6.376;2024-01-11T01:53:04;-3.50;99.90
10149;DHT22;5115;50.920;6.376;2024-01-11T01:55:29;-3.40;99.90
10149;DHT22;5115;50.920;6.376;2024-01-11T01:57:56;-3.40;99.90
10149;DHT22;5115;50.920;6.376;2024-01-11T02:00:23;-4.00;99.90
10149;DHT22;5115;50.920;6.376;2024-01-11T02:02:50;-3.60;99.90
10149;DHT22;5115;50.920;6.376;2024-01-11T02:05:17;-3.60;99.90
10149;DHT22;5115;50.920;6.376;2024-01-11T02:07:44;-3.70;99.90
10149;DHT22;5115;50.920;6.376;2024-01-11T02:10:09;-3.60;99.90
10149;DHT22;5115;50.920;6.376;2024-01-11T02:12:36;-3.50;99.90
10149;DHT22;5115;50.920;6.376;2024-01-11T02:15:05;-3.50;99.90
10149;DHT22;5115;50.920;6.376;2024-01-11T02:17:31;-3.50;99.90
10149;DHT22;5115;50.920;6.376;2024-01-11T02:19:57;-3.50;99.90
10149;DHT22;5115;50.920;6.376;2024-01-11T02:22:28;-3.50;99.90
10149;DHT22;5115;50.920;6.376;2024-01-11T02:24:54;-3.50;99.90
10149;DHT22;5115;50.920;6.376;2024-01-11T02:27:20;-3.50;99.90
10149;DHT22;5115;50.920;6.376;2024-01-11T02:29:45;-3.50;99.90
10149;DHT22;5115;50.920;6.376;2024-01-11T02:32:11;-3.50;99.90
10149;DHT22;5115;50.920;6.376;2024-01-11T02:34:37;-3.50;99.90
10149;DHT22;5115;50.920;6.376;2024-01-11T02:37:03;-3.60;99.90
10149;DHT22;5115;50.920;6.376;2024-01-11T02:39:29;-3.70;99.90
10149;DHT22;5115;50.920;6.376;2024-01-11T02:41:56;-3.70;99.90
10149;DHT22;5115;50.920;6.376;2024-01-11T02:44:22;-3.70;99.90
10149;DHT22;5115;50.920;6.376;2024-01-11T02:46:48;-3.80;99.90
10149;DHT22;5115;50.920;6.376;2024-01-11T02:49:13;-3.80;99.90
10149;DHT22;5115;50.920;6.376;2024-01-11T02:51:39;-3.30;99.90
10149;DHT22;5115;50.920;6.376;2024-01-11T02:54:05;-4.00;99.90
10149;DHT22;5115;50.920;6.376;2024-01-11T02:56:30;-4.00;99.90
10149;DHT22;5115;50.920;6.376;2024-01-11T02:58:56;-4.00;99.90
10149;DHT22;5115;50.920;6.376;2024-01-11T03:01:21;-4.00;99.90
10149;DHT22;5115;50.920;6.376;2024-01-11T03:03:47;-4.10;99.90
10149;DHT22;5115;50.920;6.376;2024-01-11T03:06:12;-4.10;99.90
10149;DHT22;5115;50.920;6.376;2024-01-11T03:08:39;-4.20;99.90
10149;DHT22;5115;50.920;6.376;2024-01-11T03:11:05;-4.20;99.90
10149;DHT22;5115;50.920;6.376;2024-01-11T03:13:31;-4.20;99.90
10149;DHT22;5115;50.920;6.376;2024-01-11T03:15:56;-4.30;99.90
10149;DHT22;5115;50.920;6.376;2024-01-11T03:18:22;-4.10;99.90
10149;DHT22;5115;50.920;6.376;2024-01-11T03:20:48;-4.10;99.90
10149;DHT22;5115;50.920;6.376;2024-01-11T03:23:13;-4.00;99.90
10149;DHT22;5115;50.920;6.376;2024-01-11T03:25:39;-4.00;99.90
10149;DHT22;5115;50.920;6.376;2024-01-11T03:28:04;-4.10;99.90
10149;DHT22;5115;50.920;6.376;2024-01-11T03:30:30;-4.10;99.90
10149;DHT22;5115;50.920;6.376;2024-01-11T03:32:55;-4.20;99.90
10149;DHT22;5115;50.920;6.376;2024-01-11T03:35:23;-4.40;99.90
10149;DHT22;5115;50.920;6.376;2024-01-11T03:37:48;-4.40;99.90
10149;DHT22;5115;50.920;6.376;2024-01-11T03:40:14;-4.30;99.90
10149;DHT22;5115;50.920;6.376;2024-01-11T03:42:41;-4.20;99.90
10149;DHT22;5115;50.920;6.376;2024-01-11T03:45:07;-4.20;99.90
10149;DHT22;5115;50.920;6.376;2024-01-11T03:47:32;-4.10;99.90
10149;DHT22;5115;50.920;6.376;2024-01-11T03:49:58;-4.10;99.90
10149;DHT22;5115;50.920;6.376;2024-01-11T03:52:23;-4.00;99.90
10149;DHT22;5115;50.920;6.376;2024-01-11T03:54:49;-3.90;99.90
10149;DHT22;5115;50.920;6.376;2024-01-11T03:57:15;-3.80;99.90
10149;DHT22;5115;50.920;6.376;2024-01-11T03:59:41;-3.90;99.90
10149;DHT22;5115;50.920;6.376;2024-01-11T04:02:06;-3.90;99.90
10149;DHT22;5115;50.920;6.376;2024-01-11T04:04:32;-3.80;99.90
10149;DHT22;5115;50.920;6.376;2024-01-11T04:06:58;-3.80;99.90
10149;DHT22;5115;50.920;6.376;2024-01-11T04:09:24;-4.10;99.90
10149;DHT22;5115;50.920;6.376;2024-01-11T04:11:49;-4.00;99.90
10149;DHT22;5115;50.920;6.376;2024-01-11T04:14:15;-4.00;99.90
10149;DHT22;5115;50.920;6.376;2024-01-11T04:16:41;-3.90;99.90
10149;DHT22;5115;50.920;6.376;2024-01-11T04:19:07;-3.90;99.90
10149;DHT22;5115;50.920;6.376;2024-01-11T04:21:33;-3.80;99.90
10149;DHT22;5115;50.920;6.376;2024-01-11T04:23:59;-3.80;99.90
10149;DHT22;5115;50.920;6.376;2024-01-11T04:26:25;-3.80;99.90
10149;DHT22;5115;50.920;6.376;2024-01-11T04:28:52;-3.80;99.90
10149;DHT22;5115;50.920;6.376;2024-01-11T04:31:17;-4.70;99.90
10149;DHT22;5115;50.920;6.376;2024-01-11T04:33:44;-3.80;99.90
10149;DHT22;5115;50.920;6.376;2024-01-11T04:36:10;-3.80;99.90
10149;DHT22;5115;50.920;6.376;2024-01-11T04:38:36;-3.80;99.90
10149;DHT22;5115;50.920;6.376;2024-01-11T04:41:12;-3.80;99.90
10149;DHT22;5115;50.920;6.376;2024-01-11T04:43:44;-3.70;99.90
10149;DHT22;5115;50.920;6.376;2024-01-11T04:46:17;-3.70;99.90
10149;DHT22;5115;50.920;6.376;2024-01-11T04:48:44;-3.70;99.90
10149;DHT22;5115;50.920;6.376;2024-01-11T04:51:10;-3.60;99.90
10149;DHT22;5115;50.920;6.376;2024-01-11T04:53:37;-3.60;99.90
10149;DHT22;5115;50.920;6.376;2024-01-11T04:56:03;-3.60;99.90
10149;DHT22;5115;50.920;6.376;2024-01-11T04:58:29;-3.70;99.90
10149;DHT22;5115;50.920;6.376;2024-01-11T05:00:55;-3.60;99.90
10149;DHT22;5115;50.920;6.376;2024-01-11T05:03:20;-3.60;99.90
10149;DHT22;5115;50.920;6.376;2024-01-11T05:05:46;-3.60;99.90
10149;DHT22;5115;50.920;6.376;2024-01-11T05:08:11;-3.70;99.90
10149;DHT22;5115;50.920;6.376;2024-01-11T05:10:37;-3.60;99.90
10149;DHT22;5115;50.920;6.376;2024-01-11T05:13:02;-3.60;99.90
10149;DHT22;5115;50.920;6.376;2024-01-11T05:15:28;-3.60;99.90
10149;DHT22;5115;50.920;6.376;2024-01-11T05:17:55;-3.60;99.90
10149;DHT22;5115;50.920;6.376;2024-01-11T05:20:21;-3.60;99.90
10149;DHT22;5115;50.920;6.376;2024-01-11T05:22:47;-3.70;99.90
10149;DHT22;5115;50.920;6.376;2024-01-11T05:25:12;-3.70;99.90
10149;DHT22;5115;50.920;6.376;2024-01-11T05:27:38;-3.60;99.90
10149;DHT22;5115;50.920;6.376;2024-01-11T05:30:04;-3.60;99.90
10149;DHT22;5115;50.920;6.376;2024-01-11T05:32:29;-3.60;99.90
10149;DHT22;5115;50.920;6.376;2024-01-11T05:34:55;-3.60;99.90
10149;DHT22;5115;50.920;6.376;2024-01-11T05:37:20;-3.50;99.90
10149;DHT22;5115;50.920;6.376;2024-01-11T05:39:46;-3.50;99.90
10149;DHT22;5115;50.920;6.376;2024-01-11T05:42:12;-3.40;99.90
10149;DHT22;5115;50.920;6.376;2024-01-11T05:44:37;-3.40;99.90
10149;DHT22;5115;50.920;6.376;2024-01-11T05:47:03;-3.40;99.90
10149;DHT22;5115;50.920;6.376;2024-01-11T05:49:29;-3.40;99.90
10149;DHT22;5115;50.920;6.376;2024-01-11T05:51:54;-3.40;99.90
10149;DHT22;5115;50.920;6.376;2024-01-11T05:54:20;-3.40;99.90
10149;DHT22;5115;50.920;6.376;2024-01-11T05:56:45;-3.30;99.90
10149;DHT22;5115;50.920;6.376;2024-01-11T05:59:11;-3.30;99.90
10149;DHT22;5115;50.920;6.376;2024-01-11T06:01:43;-3.30;99.90
10149;DHT22;5115;50.920;6.376;2024-01-11T06:04:09;-3.20;99.90
10149;DHT22;5115;50.920;6.376;2024-01-11T06:06:34;-3.30;99.90
10149;DHT22;5115;50.920;6.376;2024-01-11T06:09:00;-3.30;99.90
10149;DHT22;5115;50.920;6.376;2024-01-11T06:11:25;-3.30;99.90
10149;DHT22;5115;50.920;6.376;2024-01-11T06:13:51;-3.30;99.90
10149;DHT22;5115;50.920;6.376;2024-01-11T06:16:16;-3.30;99.90
10149;DHT22;5115;50.920;6.376;2024-01-11T06:18:43;-3.30;99.90
10149;DHT22;5115;50.920;6.376;2024-01-11T06:21:08;-2.30;99.90
10149;DHT22;5115;50.920;6.376;2024-01-11T06:23:34;-3.40;99.90
10149;DHT22;5115;50.920;6.376;2024-01-11T06:26:00;-3.40;99.90
10149;DHT22;5115;50.920;6.376;2024-01-11T06:28:25;-3.40;99.90
10149;DHT22;5115;50.920;6.376;2024-01-11T06:30:51;-3.40;99.90
10149;DHT22;5115;50.920;6.376;2024-01-11T06:33:16;-3.40;99.90
10149;DHT22;5115;50.920;6.376;2024-01-11T06:35:42;-3.30;99.90
10149;DHT22;5115;50.920;6.376;2024-01-11T06:38:07;-3.40;99.90
10149;DHT22;5115;50.920;6.376;2024-01-11T06:40:33;-3.40;99.90
10149;DHT22;5115;50.920;6.376;2024-01-11T06:42:58;-3.40;99.90
10149;DHT22;5115;50.920;6.376;2024-01-11T06:45:24;-3.40;99.90
10149;DHT22;5115;50.920;6.376;2024-01-11T06:47:49;-3.40;99.90
10149;DHT22;5115;50.920;6.376;2024-01-11T06:50:15;-3.50;99.90
10149;DHT22;5115;50.920;6.376;2024-01-11T06:52:41;-3.50;99.90
10149;DHT22;5115;50.920;6.376;2024-01-11T06:55:07;-3.40;99.90
10149;DHT22;5115;50.920;6.376;2024-01-11T06:57:32;-3.50;99.90
10149;DHT22;5115;50.920;6.376;2024-01-11T06:59:58;-3.50;99.90
10149;DHT22;5115;50.920;6.376;2024-01-11T07:02:23;-3.50;99.90
10149;DHT22;5115;50.920;6.376;2024-01-11T07:04:49;-3.60;99.90
10149;DHT22;5115;50.920;6.376;2024-01-11T07:07:14;-3.60;99.90
10149;DHT22;5115;50.920;6.376;2024-01-11T07:09:40;-3.60;99.90
10149;DHT22;5115;50.920;6.376;2024-01-11T07:12:06;-3.50;99.90
10149;DHT22;5115;50.920;6.376;2024-01-11T07:14:31;-3.40;99.90
10149;DHT22;5115;50.920;6.376;2024-01-11T07:16:57;-3.40;99.90
10149;DHT22;5115;50.920;6.376;2024-01-11T07:19:23;-3.40;99.90
10149;DHT22;5115;50.920;6.376;2024-01-11T07:21:48;-3.40;99.90
10149;DHT22;5115;50.920;6.376;2024-01-11T07:24:14;-3.50;99.90
10149;DHT22;5115;50.920;6.376;2024-01-11T07:26:43;-3.50;99.90
10149;DHT22;5115;50.920;6.376;2024-01-11T07:29:09;-3.50;99.90
10149;DHT22;5115;50.920;6.376;2024-01-11T07:31:34;-3.40;99.90
10149;DHT22;5115;50.920;6.376;2024-01-11T07:34:00;-3.40;99.90
10149;DHT22;5115;50.920;6.376;2024-01-11T07:36:26;-3.50;99.90
10149;DHT22;5115;50.920;6.376;2024-01-11T07:38:51;-3.50;99.90
10149;DHT22;5115;50.920;6.376;2024-01-11T07:41:17;-3.50;99.90
10149;DHT22;5115;50.920;6.376;2024-01-11T07:43:42;-3.50;99.90
10149;DHT22;5115;50.920;6.376;2024-01-11T07:46:11;-3.50;99.90
10149;DHT22;5115;50.920;6.376;2024-01-11T07:48:37;-3.50;99.90
10149;DHT22;5115;50.920;6.376;2024-01-11T07:51:03;-3.50;99.90
10149;DHT22;5115;50.920;6.376;2024-01-11T07:53:30;-3.50;99.90
10149;DHT22;5115;50.920;6.376;2024-01-11T07:55:57;-3.50;99.90
10149;DHT22;5115;50.920;6.376;2024-01-11T07:58:23;-3.40;99.90
10149;DHT22;5115;50.920;6.376;2024-01-11T08:00:48;-3.30;99.90
10149;DHT22;5115;50.920;6.376;2024-01-11T08:03:14;-3.30;99.90
10149;DHT22;5115;50.920;6.376;2024-01-11T08:05:40;-3.30;99.90
10149;DHT22;5115;50.920;6.376;2024-01-11T08:08:06;-3.20;99.90
10149;DHT22;5115;50.920;6.376;2024-01-11T08:10:32;-3.10;99.90
10149;DHT22;5115;50.920;6.376;2024-01-11T08:12:57;-2.60;99.90
10149;DHT22;5115;50.920;6.376;2024-01-11T08:15:25;-1.90;99.90
10149;DHT22;5115;50.920;6.376;2024-01-11T08:17:50;-1.00;99.90
10149;DHT22;5115;50.920;6.376;2024-01-11T08:20:16;-0.10;99.90
10149;DHT22;5115;50.920;6.376;2024-01-11T08:22:42;0.70;99.90
10149;DHT22;5115;50.920;6.376;2024-01-11T08:25:09;1.40;99.90
10149;DHT22;5115;50.920;6.376;2024-01-11T08:27:34;1.90;99.90
10149;DHT22;5115;50.920;6.376;2024-01-11T08:30:00;2.50;99.90
10149;DHT22;5115;50.920;6.376;2024-01-11T08:32:26;3.00;99.90
10149;DHT22;5115;50.920;6.376;2024-01-11T08:34:52;3.60;99.90
10149;DHT22;5115;50.920;6.376;2024-01-11T08:37:17;4.40;99.90
10149;DHT22;5115;50.920;6.376;2024-01-11T08:39:43;5.00;99.90
10149;DHT22;5115;50.920;6.376;2024-01-11T08:42:09;5.60;99.90
10149;DHT22;5115;50.920;6.376;2024-01-11T08:44:34;6.20;99.90
10149;DHT22;5115;50.920;6.376;2024-01-11T08:47:00;6.60;98.80
10149;DHT22;5115;50.920;6.376;2024-01-11T08:49:27;7.20;98.40
10149;DHT22;5115;50.920;6.376;2024-01-11T08:51:53;7.80;97.50
10149;DHT22;5115;50.920;6.376;2024-01-11T08:54:18;8.10;96.30
10149;DHT22;5115;50.920;6.376;2024-01-11T08:56:46;8.40;96.00
10149;DHT22;5115;50.920;6.376;2024-01-11T08:59:11;9.00;95.50
10149;DHT22;5115;50.920;6.376;2024-01-11T09:01:37;9.50;94.20
10149;DHT22;5115;50.920;6.376;2024-01-11T09:04:03;10.00;93.30
10149;DHT22;5115;50.920;6.376;2024-01-11T09:06:29;10.30;91.90
10149;DHT22;5115;50.920;6.376;2024-01-11T09:08:55;10.40;91.60
10149;DHT22;5115;50.920;6.376;2024-01-11T09:11:20;10.80;90.90
10149;DHT22;5115;50.920;6.376;2024-01-11T09:13:46;10.70;90.50
10149;DHT22;5115;50.920;6.376;2024-01-11T09:16:16;11.10;90.70
10149;DHT22;5115;50.920;6.376;2024-01-11T09:18:43;11.20;89.40
10149;DHT22;5115;50.920;6.376;2024-01-11T09:21:08;11.10;88.30
10149;DHT22;5115;50.920;6.376;2024-01-11T09:23:35;10.90;87.60
10149;DHT22;5115;50.920;6.376;2024-01-11T09:26:00;11.00;88.40
10149;DHT22;5115;50.920;6.376;2024-01-11T09:28:26;11.30;87.70
10149;DHT22;5115;50.920;6.376;2024-01-11T09:30:51;11.70;87.90
10149;DHT22;5115;50.920;6.376;2024-01-11T09:33:17;11.50;86.90
10149;DHT22;5115;50.920;6.376;2024-01-11T09:35:42;11.80;86.30
10149;DHT22;5115;50.920;6.376;2024-01-11T09:38:08;11.90;85.40
10149;DHT22;5115;50.920;6.376;2024-01-11T09:40:34;11.50;85.20
10149;DHT22;5115;50.920;6.376;2024-01-11T09:43:02;11.70;85.70
10149;DHT22;5115;50.920;6.376;2024-01-11T09:45:29;11.80;85.00
10149;DHT22;5115;50.920;6.376;2024-01-11T09:47:55;12.10;85.30
10149;DHT22;5115;50.920;6.376;2024-01-11T09:50:21;12.40;84.30
10149;DHT22;5115;50.920;6.376;2024-01-11T09:52:48;12.70;83.40
10149;DHT22;5115;50.920;6.376;2024-01-11T09:55:14;12.80;83.00
10149;DHT22;5115;50.920;6.376;2024-01-11T09:57:45;12.90;83.30
10149;DHT22;5115;50.920;6.376;2024-01-11T10:00:15;12.80;82.40
10149;DHT22;5115;50.920;6.376;2024-01-11T10:02:42;12.90;82.60
10149;DHT22;5115;50.920;6.376;2024-01-11T10:05:07;12.80;83.00
10149;DHT22;5115;50.920;6.376;2024-01-11T10:07:34;12.90;82.00
10149;DHT22;5115;50.920;6.376;2024-01-11T10:10:00;13.00;82.40
10149;DHT22;5115;50.920;6.376;2024-01-11T10:12:27;12.90;82.00
10149;DHT22;5115;50.920;6.376;2024-01-11T10:14:53;13.20;82.30
10149;DHT22;5115;50.920;6.376;2024-01-11T10:17:19;13.60;82.20
10149;DHT22;5115;50.920;6.376;2024-01-11T10:19:45;13.80;80.90
10149;DHT22;5115;50.920;6.376;2024-01-11T10:22:10;14.10;80.00
10149;DHT22;5115;50.920;6.376;2024-01-11T10:24:42;13.40;80.60
10149;DHT22;5115;50.920;6.376;2024-01-11T10:27:09;13.50;81.00
10149;DHT22;5115;50.920;6.376;2024-01-11T10:29:35;13.00;80.40
10149;DHT22;5115;50.920;6.376;2024-01-11T10:32:04;13.40;81.10
10149;DHT22;5115;50.920;6.376;2024-01-11T10:34:30;13.30;80.20
10149;DHT22;5115;50.920;6.376;2024-01-11T10:36:56;13.30;80.50
10149;DHT22;5115;50.920;6.376;2024-01-11T10:39:26;13.30;80.10
10149;DHT22;5115;50.920;6.376;2024-01-11T10:42:06;13.60;79.80
10149;DHT22;5115;50.920;6.376;2024-01-11T10:44:33;13.50;78.90
10149;DHT22;5115;50.920;6.376;2024-01-11T10:47:02;13.70;79.40
10149;DHT22;5115;50.920;6.376;2024-01-11T10:49:30;13.50;79.70
10149;DHT22;5115;50.920;6.376;2024-01-11T10:51:59;13.20;79.20
10149;DHT22;5115;50.920;6.376;2024-01-11T10:54:26;12.90;79.90
10149;DHT22;5115;50.920;6.376;2024-01-11T10:56:53;12.90;79.30
10149;DHT22;5115;50.920;6.376;2024-01-11T10:59:21;12.60;80.50
10149;DHT22;5115;50.920;6.376;2024-01-11T11:01:51;12.60;81.00
10149;DHT22;5115;50.920;6.376;2024-01-11T11:04:19;12.50;81.20
10149;DHT22;5115;50.920;6.376;2024-01-11T11:06:46;12.60;81.80
10149;DHT22;5115;50.920;6.376;2024-01-11T11:09:13;12.60;81.80
10149;DHT22;5115;50.920;6.376;2024-01-11T11:11:40;12.80;81.90
10149;DHT22;5115;50.920;6.376;2024-01-11T11:14:06;12.20;81.70
10149;DHT22;5115;50.920;6.376;2024-01-11T11:16:32;11.40;82.20
10149;DHT22;5115;50.920;6.376;2024-01-11T11:18:58;10.70;83.40
10149;DHT22;5115;50.920;6.376;2024-01-11T11:21:24;10.10;85.20
10149;DHT22;5115;50.920;6.376;2024-01-11T11:23:50;9.60;88.30
10149;DHT22;5115;50.920;6.376;2024-01-11T11:26:16;8.80;89.10
10149;DHT22;5115;50.920;6.376;2024-01-11T11:28:47;8.40;90.60
10149;DHT22;5115;50.920;6.376;2024-01-11T11:31:13;7.70;90.90
10149;DHT22;5115;50.920;6.376;2024-01-11T11:33:59;7.30;91.80
10149;DHT22;5115;50.920;6.376;2024-01-11T11:36:29;7.60;92.30
10149;DHT22;5115;50.920;6.376;2024-01-11T11:38:57;7.30;92.10
10149;DHT22;5115;50.920;6.376;2024-01-11T11:41:26;7.20;92.80
10149;DHT22;5115;50.920;6.376;2024-01-11T11:43:52;6.80;92.30
10149;DHT22;5115;50.920;6.376;2024-01-11T11:46:18;7.00;93.00
10149;DHT22;5115;50.920;6.376;2024-01-11T11:48:49;7.00;93.00
10149;DHT22;5115;50.920;6.376;2024-01-11T11:51:17;6.80;93.30
10149;DHT22;5115;50.920;6.376;2024-01-11T11:53:49;6.70;93.90
10149;DHT22;5115;50.920;6.376;2024-01-11T11:56:20;6.80;93.90
10149;DHT22;5115;50.920;6.376;2024-01-11T11:58:46;6.70;94.00
10149;DHT22;5115;50.920;6.376;2024-01-11T12:01:15;6.70;94.10
10149;DHT22;5115;50.920;6.376;2024-01-11T12:03:43;6.40;93.90
10149;DHT22;5115;50.920;6.376;2024-01-11T12:06:14;6.20;94.40
10149;DHT22;5115;50.920;6.376;2024-01-11T12:08:42;6.10;94.80
10149;DHT22;5115;50.920;6.376;2024-01-11T12:11:08;5.90;94.60
10149;DHT22;5115;50.920;6.376;2024-01-11T12:13:35;5.80;94.50
10149;DHT22;5115;50.920;6.376;2024-01-11T12:16:01;5.50;94.70
10149;DHT22;5115;50.920;6.376;2024-01-11T12:18:27;5.40;94.80
10149;DHT22;5115;50.920;6.376;2024-01-11T12:20:52;5.30;95.10
10149;DHT22;5115;50.920;6.376;2024-01-11T12:23:21;5.20;95.40
10149;DHT22;5115;50.920;6.376;2024-01-11T12:25:47;5.00;95.60
10149;DHT22;5115;50.920;6.376;2024-01-11T12:28:13;4.90;95.70
10149;DHT22;5115;50.920;6.376;2024-01-11T12:30:38;4.80;96.10
10149;DHT22;5115;50.920;6.376;2024-01-11T12:33:04;4.80;96.50
10149;DHT22;5115;50.920;6.376;2024-01-11T12:35:31;5.60;96.90
10149;DHT22;5115;50.920;6.376;2024-01-11T12:38:04;4.70;97.20
10149;DHT22;5115;50.920;6.376;2024-01-11T12:40:37;4.30;97.00
10149;DHT22;5115;50.920;6.376;2024-01-11T12:43:08;4.20;98.10
10149;DHT22;5115;50.920;6.376;2024-01-11T12:45:37;4.00;98.30
10149;DHT22;5115;50.920;6.376;2024-01-11T12:48:06;3.90;98.60
10149;DHT22;5115;50.920;6.376;2024-01-11T12:50:33;3.80;98.80
10149;DHT22;5115;50.920;6.376;2024-01-11T12:55:31;4.10;99.30
10149;DHT22;5115;50.920;6.376;2024-01-11T12:58:08;4.10;98.90
10149;DHT22;5115;50.920;6.376;2024-01-11T13:00:37;4.10;99.30
10149;DHT22;5115;50.920;6.376;2024-01-11T13:03:05;4.20;99.30
10149;DHT22;5115;50.920;6.376;2024-01-11T13:05:31;4.20;99.20
10149;DHT22;5115;50.920;6.376;2024-01-11T13:08:09;4.20;99.40
10149;DHT22;5115;50.920;6.376;2024-01-11T13:10:35;4.10;99.10
10149;DHT22;5115;50.920;6.376;2024-01-11T13:13:01;4.10;99.40
10149;DHT22;5115;50.920;6.376;2024-01-11T13:15:27;3.90;99.40
10149;DHT22;5115;50.920;6.376;2024-01-11T13:17:55;3.80;99.50
10149;DHT22;5115;50.920;6.376;2024-01-11T13:20:21;3.80;99.90
10149;DHT22;5115;50.920;6.376;2024-01-11T13:22:46;3.80;99.90
10149;DHT22;5115;50.920;6.376;2024-01-11T13:25:12;3.90;99.90
10149;DHT22;5115;50.920;6.376;2024-01-11T13:27:38;4.00;99.90
10149;DHT22;5115;50.920;6.376;2024-01-11T13:30:04;4.10;99.90
10149;DHT22;5115;50.920;6.376;2024-01-11T13:32:31;4.00;99.90
10149;DHT22;5115;50.920;6.376;2024-01-11T13:34:56;3.90;99.90
10149;DHT22;5115;50.920;6.376;2024-01-11T13:37:22;3.80;99.90
10149;DHT22;5115;50.920;6.376;2024-01-11T13:39:48;3.90;99.90
10149;DHT22;5115;50.920;6.376;2024-01-11T13:42:13;3.80;99.90
10149;DHT22;5115;50.920;6.376;2024-01-11T13:44:39;3.70;99.90
10149;DHT22;5115;50.920;6.376;2024-01-11T13:47:05;3.70;99.90
10149;DHT22;5115;50.920;6.376;2024-01-11T13:49:30;3.70;99.90
10149;DHT22;5115;50.920;6.376;2024-01-11T13:51:56;3.50;99.90
10149;DHT22;5115;50.920;6.376;2024-01-11T13:54:22;3.30;99.90
10149;DHT22;5115;50.920;6.376;2024-01-11T13:56:47;3.10;99.90
10149;DHT22;5115;50.920;6.376;2024-01-11T13:59:13;3.00;99.90
10149;DHT22;5115;50.920;6.376;2024-01-11T14:01:39;2.80;99.90
10149;DHT22;5115;50.920;6.376;2024-01-11T14:04:05;2.80;99.90
10149;DHT22;5115;50.920;6.376;2024-01-11T14:06:30;3.00;99.90
10149;DHT22;5115;50.920;6.376;2024-01-11T14:08:56;2.90;99.90
10149;DHT22;5115;50.920;6.376;2024-01-11T14:11:22;2.80;99.90
10149;DHT22;5115;50.920;6.376;2024-01-11T14:13:47;2.90;99.90
10149;DHT22;5115;50.920;6.376;2024-01-11T14:16:15;2.80;99.90
10149;DHT22;5115;50.920;6.376;2024-01-11T14:18:42;2.80;99.90
10149;DHT22;5115;50.920;6.376;2024-01-11T14:21:07;2.80;99.90
10149;DHT22;5115;50.920;6.376;2024-01-11T14:23:37;2.80;99.90
10149;DHT22;5115;50.920;6.376;2024-01-11T14:26:02;2.90;99.90
10149;DHT22;5115;50.920;6.376;2024-01-11T14:28:28;3.00;99.90
10149;DHT22;5115;50.920;6.376;2024-01-11T14:30:53;2.90;99.90
10149;DHT22;5115;50.920;6.376;2024-01-11T14:33:19;3.00;99.90
10149;DHT22;5115;50.920;6.376;2024-01-11T14:35:45;2.90;99.90
10149;DHT22;5115;50.920;6.376;2024-01-11T14:38:10;2.80;99.90
10149;DHT22;5115;50.920;6.376;2024-01-11T14:40:36;2.90;99.90
10149;DHT22;5115;50.920;6.376;2024-01-11T14:43:01;3.00;99.90
10149;DHT22;5115;50.920;6.376;2024-01-11T14:45:29;2.90;99.90
10149;DHT22;5115;50.920;6.376;2024-01-11T14:47:55;2.90;99.90
10149;DHT22;5115;50.920;6.376;2024-01-11T14:50:20;2.80;99.90
10149;DHT22;5115;50.920;6.376;2024-01-11T14:52:46;2.80;99.90
10149;DHT22;5115;50.920;6.376;2024-01-11T14:55:12;2.80;99.90
10149;DHT22;5115;50.920;6.376;2024-01-11T14:57:39;2.80;99.90
10149;DHT22;5115;50.920;6.376;2024-01-11T15:00:05;2.80;99.90
10149;DHT22;5115;50.920;6.376;2024-01-11T15:02:33;2.80;99.90
10149;DHT22;5115;50.920;6.376;2024-01-11T15:04:59;2.60;99.90
10149;DHT22;5115;50.920;6.376;2024-01-11T15:07:25;2.50;99.90
10149;DHT22;5115;50.920;6.376;2024-01-11T15:09:51;2.50;99.90
10149;DHT22;5115;50.920;6.376;2024-01-11T15:12:16;2.60;99.90
10149;DHT22;5115;50.920;6.376;2024-01-11T15:14:42;2.50;99.90
10149;DHT22;5115;50.920;6.376;2024-01-11T15:17:07;2.50;99.90
10149;DHT22;5115;50.920;6.376;2024-01-11T15:19:33;2.40;99.90
10149;DHT22;5115;50.920;6.376;2024-01-11T15:21:59;2.30;99.90
10149;DHT22;5115;50.920;6.376;2024-01-11T15:24:24;2.40;99.90
10149;DHT22;5115;50.920;6.376;2024-01-11T15:26:50;2.30;99.90
10149;DHT22;5115;50.920;6.376;2024-01-11T15:29:16;2.20;99.90
10149;DHT22;5115;50.920;6.376;2024-01-11T15:31:42;2.10;99.90
10149;DHT22;5115;50.920;6.376;2024-01-11T15:34:10;1.90;99.90
10149;DHT22;5115;50.920;6.376;2024-01-11T15:36:36;2.00;99.90
10149;DHT22;5115;50.920;6.376;2024-01-11T15:39:01;2.00;99.90
10149;DHT22;5115;50.920;6.376;2024-01-11T15:41:27;2.10;99.90
10149;DHT22;5115;50.920;6.376;2024-01-11T15:43:53;2.20;99.90
10149;DHT22;5115;50.920;6.376;2024-01-11T15:46:19;2.20;99.90